createdAt,value
2023-04-09T00:00:14.634Z,7.99
2023-04-09T00:02:42.160Z,7.91
2023-04-09T00:05:09.397Z,7.80
2023-04-09T00:07:36.553Z,7.70
2023-04-09T00:10:03.702Z,7.64
2023-04-09T00:12:30.762Z,7.60
2023-04-09T00:14:57.921Z,7.55
2023-04-09T00:17:26.353Z,7.53
2023-04-09T00:19:53.425Z,7.51
2023-04-09T00:22:20.472Z,7.47
2023-04-09T00:24:47.544Z,7.45
2023-04-09T00:27:14.529Z,7.43
2023-04-09T00:29:41.610Z,7.43
2023-04-09T00:32:09.339Z,7.45
2023-04-09T00:34:39.061Z,7.43
2023-04-09T00:37:07.101Z,7.47
2023-04-09T00:39:34.040Z,7.43
2023-04-09T00:42:04.059Z,7.38
2023-04-09T00:44:31.262Z,7.31
2023-04-09T00:46:59.574Z,7.31
2023-04-09T00:49:26.747Z,7.26
2023-04-09T00:51:55.271Z,7.19
2023-04-09T00:54:22.504Z,7.10
2023-04-09T00:56:49.523Z,7.02
2023-04-09T00:59:16.815Z,6.97
2023-04-09T01:01:43.781Z,6.92
2023-04-09T01:04:11.228Z,6.84
2023-04-09T01:06:45.534Z,6.74
2023-04-09T01:09:21.620Z,6.66
2023-04-09T01:12:02.643Z,6.64
2023-04-09T01:14:34.971Z,6.59
2023-04-09T01:17:17.005Z,6.48
2023-04-09T01:19:50.946Z,6.42
2023-04-09T01:22:32.696Z,6.38
2023-04-09T01:25:14.575Z,6.32
2023-04-09T01:27:54.932Z,6.29
2023-04-09T01:30:24.663Z,6.21
2023-04-09T01:32:53.498Z,6.19
2023-04-09T01:35:21.368Z,6.18
2023-04-09T01:37:49.280Z,6.16
2023-04-09T01:40:16.913Z,6.17
2023-04-09T01:42:44.157Z,6.08
2023-04-09T01:45:13.719Z,6.02
2023-04-09T01:47:42.633Z,5.96
2023-04-09T01:50:10.830Z,5.93
2023-04-09T01:52:38.479Z,5.92
2023-04-09T01:55:06.586Z,5.91
2023-04-09T01:57:33.865Z,5.87
2023-04-09T02:00:01.075Z,5.87
2023-04-09T02:02:43.040Z,5.83
2023-04-09T02:05:14.322Z,5.78
2023-04-09T02:07:45.808Z,5.74
2023-04-09T02:10:14.308Z,5.70
2023-04-09T02:12:48.033Z,5.67
2023-04-09T02:15:15.548Z,5.64
2023-04-09T02:17:42.510Z,5.62
2023-04-09T02:20:12.170Z,5.54
2023-04-09T02:22:39.727Z,5.53
2023-04-09T02:25:07.287Z,5.48
2023-04-09T02:27:34.392Z,5.38
2023-04-09T02:30:01.574Z,5.31
2023-04-09T02:32:28.666Z,5.24
2023-04-09T02:34:55.827Z,5.17
2023-04-09T02:37:24.146Z,5.12
2023-04-09T02:39:51.181Z,5.10
2023-04-09T02:42:18.242Z,5.09
2023-04-09T02:44:45.301Z,5.08
2023-04-09T02:47:13.655Z,5.03
2023-04-09T02:49:40.644Z,4.97
2023-04-09T02:52:10.458Z,4.93
2023-04-09T02:54:42.049Z,4.90
2023-04-09T02:57:09.300Z,4.88
2023-04-09T02:59:39.222Z,4.86
2023-04-09T03:02:06.657Z,4.84
2023-04-09T03:04:33.635Z,4.81
2023-04-09T03:07:00.739Z,4.69
2023-04-09T03:09:27.808Z,4.62
2023-04-09T03:11:57.333Z,4.64
2023-04-09T03:14:24.389Z,4.61
2023-04-09T03:16:51.491Z,4.59
2023-04-09T03:19:18.693Z,4.58
2023-04-09T03:21:46.435Z,4.58
2023-04-09T03:24:13.567Z,4.60
2023-04-09T03:26:41.310Z,4.63
2023-04-09T03:29:09.618Z,4.67
2023-04-09T03:31:36.685Z,4.70
2023-04-09T03:34:03.796Z,4.71
2023-04-09T03:36:33.283Z,4.73
2023-04-09T03:39:04.766Z,4.72
2023-04-09T03:41:35.722Z,4.67
2023-04-09T03:44:11.196Z,4.61
2023-04-09T03:46:52.625Z,4.51
2023-04-09T03:49:19.971Z,4.52
2023-04-09T03:51:46.996Z,4.50
2023-04-09T03:54:14.529Z,4.51
2023-04-09T03:56:41.961Z,4.56
2023-04-09T03:59:13.528Z,4.49
2023-04-09T04:01:44.555Z,4.46
2023-04-09T04:04:12.023Z,4.48
2023-04-09T04:06:49.204Z,4.52
2023-04-09T04:09:26.869Z,4.53
2023-04-09T04:11:58.896Z,4.51
2023-04-09T04:14:40.793Z,4.48
2023-04-09T04:17:18.632Z,4.49
2023-04-09T04:19:46.122Z,4.51
2023-04-09T04:22:13.117Z,4.57
2023-04-09T04:24:43.673Z,4.59
2023-04-09T04:27:10.752Z,4.59
2023-04-09T04:29:37.678Z,4.56
2023-04-09T04:32:14.464Z,4.56
2023-04-09T04:34:41.382Z,4.58
2023-04-09T04:37:21.040Z,4.57
2023-04-09T04:39:48.896Z,4.56
2023-04-09T04:42:17.683Z,4.54
2023-04-09T04:44:45.594Z,4.53
2023-04-09T04:47:37.328Z,4.58
2023-04-09T04:50:06.031Z,4.64
2023-04-09T04:52:49.284Z,4.71
2023-04-09T04:55:16.644Z,4.68
2023-04-09T04:57:43.655Z,4.60
2023-04-09T05:00:12.899Z,4.56
2023-04-09T05:02:42.362Z,4.66
2023-04-09T05:05:25.422Z,4.80
2023-04-09T05:07:55.304Z,4.83
2023-04-09T05:10:22.627Z,4.88
2023-04-09T05:12:49.811Z,4.84
2023-04-09T05:15:27.353Z,4.96
2023-04-09T05:17:55.778Z,5.08
2023-04-09T05:20:23.227Z,5.22
2023-04-09T05:23:02.884Z,5.38
2023-04-09T05:25:34.896Z,5.47
2023-04-09T05:28:03.115Z,5.55
2023-04-09T05:30:32.243Z,5.59
2023-04-09T05:33:04.477Z,5.59
2023-04-09T05:35:32.528Z,5.62
2023-04-09T05:38:02.844Z,5.72
2023-04-09T05:40:31.021Z,5.87
2023-04-09T05:42:58.224Z,6.05
2023-04-09T05:45:36.061Z,6.10
2023-04-09T05:48:04.886Z,6.16
2023-04-09T05:50:43.937Z,6.26
2023-04-09T05:53:19.404Z,6.41
2023-04-09T05:55:46.792Z,6.60
2023-04-09T05:58:13.907Z,6.77
2023-04-09T06:00:40.867Z,6.98
2023-04-09T06:03:10.741Z,7.05
2023-04-09T06:05:38.097Z,7.08
2023-04-09T06:08:05.252Z,7.27
2023-04-09T06:10:32.655Z,7.45
2023-04-09T06:13:00.216Z,7.64
2023-04-09T06:15:27.836Z,7.75
2023-04-09T06:17:55.959Z,7.86
2023-04-09T06:20:25.321Z,7.89
2023-04-09T06:22:52.264Z,8.01
2023-04-09T06:25:19.473Z,8.30
2023-04-09T06:27:47.240Z,8.57
2023-04-09T06:30:14.420Z,8.82
2023-04-09T06:32:53.182Z,9.09
2023-04-09T06:35:21.091Z,9.48
2023-04-09T06:37:49.418Z,9.83
2023-04-09T06:40:16.565Z,10.28
2023-04-09T06:42:43.882Z,10.88
2023-04-09T06:45:18.360Z,11.46
2023-04-09T06:47:45.493Z,11.97
2023-04-09T06:50:12.574Z,12.44
2023-04-09T06:52:39.608Z,12.77
2023-04-09T06:55:09.034Z,13.17
2023-04-09T06:57:35.948Z,13.47
2023-04-09T07:00:03.815Z,13.61
2023-04-09T07:02:31.212Z,13.63
2023-04-09T07:04:58.229Z,13.57
2023-04-09T07:07:25.866Z,13.93
2023-04-09T07:09:53.673Z,14.23
2023-04-09T07:12:28.259Z,14.39
2023-04-09T07:14:58.049Z,14.71
2023-04-09T07:17:26.223Z,15.04
2023-04-09T07:19:54.408Z,15.39
2023-04-09T07:22:22.226Z,15.35
2023-04-09T07:24:55.294Z,15.48
2023-04-09T07:27:23.384Z,15.84
2023-04-09T07:29:55.804Z,16.25
2023-04-09T07:32:22.900Z,16.57
2023-04-09T07:34:51.577Z,16.83
2023-04-09T07:37:18.862Z,16.87
2023-04-09T07:39:46.677Z,17.00
2023-04-09T07:42:13.943Z,17.17
2023-04-09T07:44:41.002Z,17.47
2023-04-09T07:47:09.758Z,17.78
2023-04-09T07:49:37.976Z,17.99
2023-04-09T07:52:05.653Z,18.11
2023-04-09T07:54:33.758Z,18.38
2023-04-09T07:57:03.871Z,18.71
2023-04-09T07:59:31.911Z,19.05
2023-04-09T08:01:59.178Z,19.24
2023-04-09T08:04:28.057Z,19.23
2023-04-09T08:06:55.250Z,18.92
2023-04-09T08:09:22.615Z,19.18
2023-04-09T08:11:49.882Z,19.28
2023-04-09T08:14:17.942Z,19.62
2023-04-09T08:16:47.121Z,19.74
2023-04-09T08:19:16.017Z,19.55
2023-04-09T08:21:44.661Z,19.15
2023-04-09T08:24:12.596Z,19.14
2023-04-09T08:26:41.234Z,18.99
2023-04-09T08:29:09.260Z,18.90
2023-04-09T08:31:39.423Z,18.54
2023-04-09T08:34:06.717Z,18.32
2023-04-09T08:36:35.459Z,18.39
2023-04-09T08:39:04.364Z,18.21
2023-04-09T08:41:32.548Z,18.31
2023-04-09T08:44:00.075Z,18.64
2023-04-09T08:46:27.991Z,18.77
2023-04-09T08:48:56.209Z,18.56
2023-04-09T08:51:24.544Z,18.49
2023-04-09T08:53:57.135Z,18.57
2023-04-09T08:56:26.671Z,18.61
2023-04-09T08:58:55.301Z,18.87
2023-04-09T09:01:23.783Z,18.96
2023-04-09T09:03:59.135Z,19.27
2023-04-09T09:06:33.362Z,19.28
2023-04-09T09:09:05.619Z,19.20
2023-04-09T09:11:35.018Z,19.15
2023-04-09T09:14:03.845Z,19.03
2023-04-09T09:16:33.190Z,19.07
2023-04-09T09:19:01.240Z,18.89
2023-04-09T09:21:32.103Z,18.46
2023-04-09T09:23:59.623Z,18.50
2023-04-09T09:26:28.905Z,18.52
2023-04-09T09:29:01.293Z,18.74
2023-04-09T09:31:28.455Z,18.94
2023-04-09T09:33:56.412Z,19.17
2023-04-09T09:36:33.612Z,18.90
2023-04-09T09:39:10.253Z,18.88
2023-04-09T09:41:38.004Z,18.77
2023-04-09T09:44:07.310Z,18.47
2023-04-09T09:46:36.653Z,18.04
2023-04-09T09:49:03.750Z,17.68
2023-04-09T09:51:32.684Z,17.92
2023-04-09T09:54:00.096Z,18.25
2023-04-09T09:56:33.134Z,18.71
2023-04-09T09:59:11.008Z,19.17
2023-04-09T10:01:38.133Z,19.51
2023-04-09T10:04:07.240Z,19.26
2023-04-09T10:06:34.651Z,18.63
2023-04-09T10:09:06.392Z,18.20
2023-04-09T10:11:35.323Z,18.11
2023-04-09T10:14:02.657Z,18.30
2023-04-09T10:16:31.772Z,18.17
2023-04-09T10:19:00.380Z,18.07
2023-04-09T10:21:35.640Z,18.06
2023-04-09T10:24:06.104Z,18.33
2023-04-09T10:26:34.156Z,18.78
2023-04-09T10:29:08.280Z,19.31
2023-04-09T10:32:06.948Z,19.70
2023-04-09T10:34:36.269Z,19.78
2023-04-09T10:37:03.920Z,19.74
2023-04-09T10:39:32.347Z,19.69
2023-04-09T10:42:02.358Z,19.51
2023-04-09T10:44:32.227Z,19.49
2023-04-09T10:46:59.729Z,19.14
2023-04-09T10:49:35.344Z,19.28
2023-04-09T10:52:04.017Z,19.31
2023-04-09T10:54:46.231Z,19.36
2023-04-09T10:57:18.401Z,19.06
2023-04-09T10:59:47.058Z,18.89
2023-04-09T11:02:53.411Z,19.18
2023-04-09T11:05:26.425Z,19.13
2023-04-09T11:07:58.250Z,18.94
2023-04-09T11:10:25.315Z,18.95
2023-04-09T11:12:52.211Z,19.21
2023-04-09T11:15:20.583Z,19.33
2023-04-09T11:17:48.700Z,19.40
2023-04-09T11:20:17.610Z,19.42
2023-04-09T11:22:46.066Z,19.22
2023-04-09T11:25:19.213Z,19.18
2023-04-09T11:27:47.221Z,19.30
2023-04-09T11:30:14.946Z,19.59
2023-04-09T11:32:42.179Z,19.85
2023-04-09T11:35:14.276Z,19.95
2023-04-09T11:37:42.346Z,19.86
2023-04-09T11:40:17.005Z,19.85
2023-04-09T11:42:44.581Z,19.88
2023-04-09T11:45:12.477Z,19.92
2023-04-09T11:47:43.535Z,20.02
2023-04-09T11:50:12.067Z,20.04
2023-04-09T11:52:39.900Z,20.15
2023-04-09T11:55:08.190Z,20.26
2023-04-09T11:57:44.697Z,20.02
2023-04-09T12:00:14.068Z,20.17
2023-04-09T12:02:46.778Z,20.38
2023-04-09T12:05:22.888Z,20.56
2023-04-09T12:07:56.191Z,20.32
2023-04-09T12:10:27.636Z,20.63
2023-04-09T12:13:01.578Z,20.73
2023-04-09T12:15:32.661Z,20.66
2023-04-09T12:17:59.949Z,20.47
2023-04-09T12:20:33.684Z,20.30
2023-04-09T12:23:03.445Z,20.38
2023-04-09T12:25:31.197Z,20.61
2023-04-09T12:27:59.662Z,20.68
2023-04-09T12:30:26.998Z,20.92
2023-04-09T12:32:54.668Z,21.31
2023-04-09T12:35:22.263Z,21.56
2023-04-09T12:37:50.019Z,21.44
2023-04-09T12:40:17.829Z,21.39
2023-04-09T12:42:46.247Z,21.11
2023-04-09T12:45:15.935Z,20.88
2023-04-09T12:47:42.999Z,20.92
2023-04-09T12:50:12.154Z,21.03
2023-04-09T12:52:39.463Z,21.33
2023-04-09T12:55:07.580Z,21.24
2023-04-09T12:57:37.410Z,21.08
2023-04-09T13:00:09.076Z,20.96
2023-04-09T13:02:37.821Z,20.26
2023-04-09T13:05:05.481Z,19.67
2023-04-09T13:07:32.459Z,19.57
2023-04-09T13:09:59.386Z,19.93
2023-04-09T13:12:26.716Z,20.08
2023-04-09T13:14:54.527Z,20.15
2023-04-09T13:17:22.142Z,20.34
2023-04-09T13:19:50.746Z,20.45
2023-04-09T13:22:18.308Z,20.63
2023-04-09T13:24:45.326Z,20.89
2023-04-09T13:27:12.374Z,21.13
2023-04-09T13:29:39.372Z,21.31
2023-04-09T13:32:11.004Z,21.20
2023-04-09T13:34:39.750Z,20.68
2023-04-09T13:37:08.361Z,20.15
2023-04-09T13:39:35.685Z,20.12
2023-04-09T13:42:12.793Z,20.37
2023-04-09T13:44:42.544Z,20.49
2023-04-09T13:47:11.275Z,20.51
2023-04-09T13:49:38.545Z,20.43
2023-04-09T13:52:06.220Z,20.35
2023-04-09T13:54:35.473Z,20.31
2023-04-09T13:57:03.376Z,20.30
2023-04-09T13:59:30.464Z,20.28
2023-04-09T14:01:57.536Z,20.14
2023-04-09T14:04:24.720Z,19.97
2023-04-09T14:06:51.751Z,19.89
2023-04-09T14:09:18.677Z,19.84
2023-04-09T14:11:47.325Z,19.90
2023-04-09T14:14:14.291Z,19.94
2023-04-09T14:16:41.363Z,19.97
2023-04-09T14:19:11.552Z,20.03
2023-04-09T14:21:39.017Z,20.08
2023-04-09T14:24:06.412Z,20.14
2023-04-09T14:26:33.398Z,20.02
2023-04-09T14:29:02.124Z,19.78
2023-04-09T14:31:29.191Z,19.61
2023-04-09T14:33:56.740Z,19.39
2023-04-09T14:36:24.505Z,19.19
2023-04-09T14:38:51.898Z,18.84
2023-04-09T14:41:20.085Z,18.74
2023-04-09T14:43:47.065Z,18.69
2023-04-09T14:46:15.773Z,18.57
2023-04-09T14:48:42.879Z,18.50
2023-04-09T14:51:11.068Z,18.28
2023-04-09T14:53:38.499Z,18.11
2023-04-09T14:56:06.732Z,17.96
2023-04-09T14:58:33.709Z,17.87
2023-04-09T15:01:00.829Z,17.83
2023-04-09T15:03:29.575Z,17.81
2023-04-09T15:05:56.870Z,17.82
2023-04-09T15:08:23.878Z,17.90
2023-04-09T15:10:51.351Z,17.86
2023-04-09T15:13:18.503Z,17.90
2023-04-09T15:15:45.734Z,17.89
2023-04-09T15:18:12.708Z,17.91
2023-04-09T15:20:43.272Z,17.93
2023-04-09T15:23:10.807Z,17.97
2023-04-09T15:25:37.795Z,17.99
2023-04-09T15:28:05.623Z,18.00
2023-04-09T15:30:32.686Z,17.96
2023-04-09T15:32:59.705Z,17.99
2023-04-09T15:35:29.552Z,17.96
2023-04-09T15:37:57.991Z,17.81
2023-04-09T15:40:25.020Z,17.75
2023-04-09T15:42:52.315Z,17.77
2023-04-09T15:45:19.378Z,17.74
2023-04-09T15:47:47.009Z,17.59
2023-04-09T15:50:14.745Z,17.50
2023-04-09T15:52:41.941Z,17.33
2023-04-09T15:55:11.181Z,17.27
2023-04-09T15:57:38.776Z,17.26
2023-04-09T16:00:10.969Z,17.02
2023-04-09T16:02:38.980Z,16.96
2023-04-09T16:05:07.295Z,16.93
2023-04-09T16:07:34.654Z,16.87
2023-04-09T16:10:02.364Z,16.79
2023-04-09T16:12:30.937Z,16.76
2023-04-09T16:14:58.560Z,16.72
2023-04-09T16:17:25.724Z,16.71
2023-04-09T16:19:52.666Z,16.70
2023-04-09T16:22:19.855Z,16.67
2023-04-09T16:24:46.807Z,16.64
2023-04-09T16:27:14.534Z,16.58
2023-04-09T16:29:43.171Z,16.46
2023-04-09T16:32:10.156Z,16.42
2023-04-09T16:34:37.385Z,16.42
2023-04-09T16:37:04.334Z,16.42
2023-04-09T16:39:31.624Z,16.35
2023-04-09T16:41:58.925Z,16.31
2023-04-09T16:44:26.256Z,16.21
2023-04-09T16:46:54.663Z,16.15
2023-04-09T16:49:21.662Z,16.09
2023-04-09T16:51:50.823Z,16.05
2023-04-09T16:54:17.790Z,16.00
2023-04-09T16:56:44.797Z,15.95
2023-04-09T16:59:12.212Z,15.87
2023-04-09T17:01:39.197Z,15.76
2023-04-09T17:04:07.883Z,15.62
2023-04-09T17:06:34.873Z,15.48
2023-04-09T17:09:04.004Z,15.40
2023-04-09T17:11:32.590Z,15.37
2023-04-09T17:13:59.706Z,15.36
2023-04-09T17:16:27.944Z,15.35
2023-04-09T17:18:55.516Z,15.30
2023-04-09T17:21:24.283Z,15.24
2023-04-09T17:23:51.170Z,15.18
2023-04-09T17:26:19.089Z,15.14
2023-04-09T17:28:46.868Z,15.11
2023-04-09T17:31:14.728Z,15.10
2023-04-09T17:33:42.414Z,15.08
2023-04-09T17:36:09.425Z,15.01
2023-04-09T17:38:37.790Z,14.86
2023-04-09T17:41:07.383Z,14.74
2023-04-09T17:43:34.606Z,14.69
2023-04-09T17:46:01.651Z,14.65
2023-04-09T17:48:30.710Z,14.57
2023-04-09T17:50:59.212Z,14.49
2023-04-09T17:53:27.159Z,14.45
2023-04-09T17:55:55.574Z,14.42
2023-04-09T17:58:24.732Z,14.41
2023-04-09T18:00:53.191Z,14.36
2023-04-09T18:03:21.003Z,14.31
2023-04-09T18:05:48.164Z,14.25
2023-04-09T18:08:15.135Z,14.14
2023-04-09T18:10:42.492Z,14.09
2023-04-09T18:13:10.947Z,14.02
2023-04-09T18:15:38.327Z,13.96
2023-04-09T18:18:05.687Z,13.89
2023-04-09T18:20:33.018Z,13.76
2023-04-09T18:23:00.072Z,13.63
2023-04-09T18:25:28.670Z,13.55
2023-04-09T18:27:55.638Z,13.53
2023-04-09T18:30:24.174Z,13.50
2023-04-09T18:32:51.854Z,13.43
2023-04-09T18:35:19.229Z,13.34
2023-04-09T18:37:46.174Z,13.30
2023-04-09T18:40:15.906Z,13.28
2023-04-09T18:42:42.908Z,13.17
2023-04-09T18:45:11.456Z,13.10
2023-04-09T18:47:40.506Z,13.03
2023-04-09T18:50:08.302Z,12.97
2023-04-09T18:52:38.244Z,12.96
2023-04-09T18:55:06.163Z,12.96
2023-04-09T18:57:35.699Z,12.91
2023-04-09T19:00:04.023Z,12.82
2023-04-09T19:02:31.163Z,12.79
2023-04-09T19:04:59.690Z,12.71
2023-04-09T19:07:26.704Z,12.70
2023-04-09T19:09:53.724Z,12.65
2023-04-09T19:12:20.715Z,12.56
2023-04-09T19:14:47.681Z,12.51
2023-04-09T19:17:14.616Z,12.48
2023-04-09T19:19:41.706Z,12.49
2023-04-09T19:22:10.153Z,12.49
2023-04-09T19:24:37.229Z,12.54
2023-04-09T19:27:09.866Z,12.59
2023-04-09T19:29:36.995Z,12.65
2023-04-09T19:32:04.759Z,12.69
2023-04-09T19:34:31.892Z,12.73
2023-04-09T19:36:58.837Z,12.74
2023-04-09T19:39:27.241Z,12.76
2023-04-09T19:41:54.276Z,12.79
2023-04-09T19:44:21.563Z,12.80
2023-04-09T19:46:48.620Z,12.80
2023-04-09T19:49:15.671Z,12.78
2023-04-09T19:51:42.724Z,12.79
2023-04-09T19:54:10.922Z,12.77
2023-04-09T19:56:39.455Z,12.78
2023-04-09T19:59:06.734Z,12.75
2023-04-09T20:01:34.100Z,12.74
2023-04-09T20:04:01.554Z,12.73
2023-04-09T20:06:28.990Z,12.70
2023-04-09T20:08:56.034Z,12.68
2023-04-09T20:11:23.308Z,12.63
2023-04-09T20:13:52.064Z,12.57
2023-04-09T20:16:19.084Z,12.53
2023-04-09T20:18:46.818Z,12.46
2023-04-09T20:21:15.487Z,12.39
2023-04-09T20:23:42.538Z,12.34
2023-04-09T20:26:11.126Z,12.28
2023-04-09T20:28:38.101Z,12.23
2023-04-09T20:31:07.770Z,12.18
2023-04-09T20:33:35.111Z,12.14
2023-04-09T20:36:02.268Z,12.10
2023-04-09T20:38:30.469Z,12.05
2023-04-09T20:40:57.605Z,12.02
2023-04-09T20:43:24.718Z,11.99
2023-04-09T20:45:53.095Z,11.98
2023-04-09T20:48:21.625Z,11.95
2023-04-09T20:50:48.559Z,11.95
2023-04-09T20:53:15.488Z,11.95
2023-04-09T20:55:42.837Z,11.92
2023-04-09T20:58:09.805Z,11.89
2023-04-09T21:00:36.902Z,11.88
2023-04-09T21:03:04.128Z,11.88
2023-04-09T21:05:32.832Z,11.87
2023-04-09T21:07:59.757Z,11.81
2023-04-09T21:10:26.736Z,11.77
2023-04-09T21:12:53.754Z,11.73
2023-04-09T21:15:20.790Z,11.66
2023-04-09T21:17:47.786Z,11.67
2023-04-09T21:20:16.726Z,11.63
2023-04-09T21:22:45.700Z,11.60
2023-04-09T21:25:15.072Z,11.58
2023-04-09T21:27:42.386Z,11.58
2023-04-09T21:30:09.963Z,11.55
2023-04-09T21:32:37.114Z,11.51
2023-04-09T21:35:04.761Z,11.49
2023-04-09T21:37:33.039Z,11.49
2023-04-09T21:40:01.632Z,11.45
2023-04-09T21:42:31.491Z,11.41
2023-04-09T21:44:58.531Z,11.37
2023-04-09T21:47:27.550Z,11.34
2023-04-09T21:49:54.754Z,11.31
2023-04-09T21:52:22.032Z,11.26
2023-04-09T21:54:48.972Z,11.27
2023-04-09T21:57:17.389Z,11.24
2023-04-09T21:59:44.410Z,11.20
2023-04-09T22:02:11.394Z,11.16
2023-04-09T22:04:42.425Z,11.14
2023-04-09T22:07:10.610Z,11.08
2023-04-09T22:09:37.664Z,11.04
2023-04-09T22:12:05.264Z,10.97
2023-04-09T22:14:33.708Z,10.92
2023-04-09T22:17:01.821Z,10.88
2023-04-09T22:19:30.081Z,10.87
2023-04-09T22:21:57.577Z,10.86
2023-04-09T22:24:29.720Z,10.85
2023-04-09T22:26:58.826Z,10.82
2023-04-09T22:29:29.345Z,10.80
2023-04-09T22:31:58.101Z,10.79
2023-04-09T22:34:25.198Z,10.79
2023-04-09T22:36:52.296Z,10.74
2023-04-09T22:39:19.211Z,10.72
2023-04-09T22:41:46.574Z,10.71
2023-04-09T22:44:13.497Z,10.69
2023-04-09T22:46:40.818Z,10.66
2023-04-09T22:49:09.363Z,10.62
2023-04-09T22:51:36.478Z,10.55
2023-04-09T22:54:03.929Z,10.46
2023-04-09T22:56:31.823Z,10.41
2023-04-09T22:58:59.430Z,10.39
2023-04-09T23:01:26.877Z,10.34
2023-04-09T23:03:54.255Z,10.32
2023-04-09T23:06:22.927Z,10.30
2023-04-09T23:08:50.280Z,10.29
2023-04-09T23:11:17.204Z,10.26
2023-04-09T23:13:44.331Z,10.22
2023-04-09T23:16:11.633Z,10.18
2023-04-09T23:18:39.012Z,10.14
2023-04-09T23:21:07.153Z,10.08
2023-04-09T23:23:36.181Z,10.05
2023-04-09T23:26:03.687Z,9.97
2023-04-09T23:28:31.019Z,9.92
2023-04-09T23:30:58.055Z,9.89
2023-04-09T23:33:25.009Z,9.86
2023-04-09T23:35:51.997Z,9.79
2023-04-09T23:38:19.026Z,9.74
2023-04-09T23:40:48.415Z,9.67
2023-04-09T23:43:15.616Z,9.61
2023-04-09T23:45:43.648Z,9.57
2023-04-09T23:48:11.418Z,9.55
2023-04-09T23:50:39.290Z,9.52
2023-04-09T23:53:06.670Z,9.49
2023-04-09T23:55:34.192Z,9.46
2023-04-09T23:58:02.502Z,9.42
